sensor_id;sensor_type;location;lat;lon;timestamp;pressure;altitude;pressure_sealevel;temperature;humidity
31092;BME280;67728;53.122;12.776;2023-03-23T00:00:55;99669.63;;;9.81;75.46
31092;BME280;67728;53.122;12.776;2023-03-23T00:02:28;99665.41;;;9.77;76.10
31092;BME280;67728;53.122;12.776;2023-03-23T00:04:03;99655.09;;;9.75;75.74
31092;BME280;67728;53.122;12.776;2023-03-23T00:05:35;99660.91;;;9.83;75.06
31092;BME280;67728;53.122;12.776;2023-03-23T00:07:07;99654.59;;;9.92;75.03
31092;BME280;67728;53.122;12.776;2023-03-23T00:08:39;99638.13;;;9.94;74.47
31092;BME280;67728;53.122;12.776;2023-03-23T00:10:15;99636.25;;;9.99;74.65
31092;BME280;67728;53.122;12.776;2023-03-23T00:11:47;99624.78;;;10.06;73.89
31092;BME280;67728;53.122;12.776;2023-03-23T00:13:18;99626.50;;;10.07;73.27
31092;BME280;67728;53.122;12.776;2023-03-23T00:14:50;99628.31;;;10.04;73.38
31092;BME280;67728;53.122;12.776;2023-03-23T00:16:25;99626.81;;;9.97;74.18
31092;BME280;67728;53.122;12.776;2023-03-23T00:18:02;99633.75;;;9.95;73.74
31092;BME280;67728;53.122;12.776;2023-03-23T00:19:35;99639.81;;;9.95;73.67
31092;BME280;67728;53.122;12.776;2023-03-23T00:21:15;99630.44;;;9.91;73.75
31092;BME280;67728;53.122;12.776;2023-03-23T00:22:47;99626.22;;;9.89;73.98
31092;BME280;67728;53.122;12.776;2023-03-23T00:24:18;99627.09;;;9.88;74.13
31092;BME280;67728;53.122;12.776;2023-03-23T00:25:52;99620.25;;;9.85;74.40
31092;BME280;67728;53.122;12.776;2023-03-23T00:27:26;99618.59;;;9.83;74.22
31092;BME280;67728;53.122;12.776;2023-03-23T00:28:58;99614.31;;;9.82;74.06
31092;BME280;67728;53.122;12.776;2023-03-23T00:30:30;99619.69;;;9.76;74.35
31092;BME280;67728;53.122;12.776;2023-03-23T00:32:02;99621.47;;;9.74;74.46
31092;BME280;67728;53.122;12.776;2023-03-23T00:33:36;99619.78;;;9.73;74.10
31092;BME280;67728;53.122;12.776;2023-03-23T00:35:10;99611.06;;;9.75;74.47
31092;BME280;67728;53.122;12.776;2023-03-23T00:36:42;99605.75;;;9.80;74.40
31092;BME280;67728;53.122;12.776;2023-03-23T00:38:15;99606.69;;;9.77;74.03
31092;BME280;67728;53.122;12.776;2023-03-23T00:39:46;99601.38;;;9.82;74.05
31092;BME280;67728;53.122;12.776;2023-03-23T00:41:18;99601.97;;;9.90;73.79
31092;BME280;67728;53.122;12.776;2023-03-23T00:42:49;99605.41;;;9.90;73.74
31092;BME280;67728;53.122;12.776;2023-03-23T00:44:21;99603.53;;;9.95;73.73
31092;BME280;67728;53.122;12.776;2023-03-23T00:45:53;99607.84;;;9.96;73.40
31092;BME280;67728;53.122;12.776;2023-03-23T00:47:25;99608.63;;;9.98;74.06
31092;BME280;67728;53.122;12.776;2023-03-23T00:48:58;99607.84;;;9.96;73.80
31092;BME280;67728;53.122;12.776;2023-03-23T00:50:30;99601.72;;;9.99;73.31
31092;BME280;67728;53.122;12.776;2023-03-23T00:52:02;99605.91;;;10.03;73.89
31092;BME280;67728;53.122;12.776;2023-03-23T00:53:34;99600.75;;;10.01;73.78
31092;BME280;67728;53.122;12.776;2023-03-23T00:55:06;99596.34;;;10.05;73.63
31092;BME280;67728;53.122;12.776;2023-03-23T00:56:38;99600.44;;;10.12;73.11
31092;BME280;67728;53.122;12.776;2023-03-23T00:58:11;99589.91;;;10.18;73.32
31092;BME280;67728;53.122;12.776;2023-03-23T00:59:41;99588.09;;;10.20;73.03
31092;BME280;67728;53.122;12.776;2023-03-23T01:01:13;99581.25;;;10.19;72.84
31092;BME280;67728;53.122;12.776;2023-03-23T01:02:46;99579.47;;;10.19;73.69
31092;BME280;67728;53.122;12.776;2023-03-23T01:04:19;99578.50;;;10.24;73.04
31092;BME280;67728;53.122;12.776;2023-03-23T01:05:52;99581.13;;;10.22;73.00
31092;BME280;67728;53.122;12.776;2023-03-23T01:07:23;99566.41;;;10.24;72.60
31092;BME280;67728;53.122;12.776;2023-03-23T01:08:54;99561.22;;;10.24;72.42
31092;BME280;67728;53.122;12.776;2023-03-23T01:10:27;99569.81;;;10.25;72.43
31092;BME280;67728;53.122;12.776;2023-03-23T01:11:57;99573.41;;;10.20;73.48
31092;BME280;67728;53.122;12.776;2023-03-23T01:13:29;99566.59;;;10.18;73.64
31092;BME280;67728;53.122;12.776;2023-03-23T01:15:00;99563.66;;;10.29;72.85
31092;BME280;67728;53.122;12.776;2023-03-23T01:16:31;99561.13;;;10.27;73.10
31092;BME280;67728;53.122;12.776;2023-03-23T01:18:03;99557.69;;;10.27;72.12
31092;BME280;67728;53.122;12.776;2023-03-23T01:19:36;99565.34;;;10.30;72.16
31092;BME280;67728;53.122;12.776;2023-03-23T01:21:10;99553.97;;;10.34;72.28
31092;BME280;67728;53.122;12.776;2023-03-23T01:22:42;99553.97;;;10.34;72.11
31092;BME280;67728;53.122;12.776;2023-03-23T01:24:14;99559.31;;;10.29;73.11
31092;BME280;67728;53.122;12.776;2023-03-23T01:25:45;99548.03;;;10.30;72.32
31092;BME280;67728;53.122;12.776;2023-03-23T01:27:17;99556.63;;;10.32;71.87
31092;BME280;67728;53.122;12.776;2023-03-23T01:28:49;99548.69;;;10.37;72.10
31092;BME280;67728;53.122;12.776;2023-03-23T01:30:21;99540.91;;;10.37;71.70
31092;BME280;67728;53.122;12.776;2023-03-23T01:31:53;99551.28;;;10.37;71.98
31092;BME280;67728;53.122;12.776;2023-03-23T01:33:24;99534.84;;;10.38;72.08
31092;BME280;67728;53.122;12.776;2023-03-23T01:34:58;99535.72;;;10.37;71.74
31092;BME280;67728;53.122;12.776;2023-03-23T01:36:30;99541.81;;;10.36;72.32
31092;BME280;67728;53.122;12.776;2023-03-23T01:38:02;99537.22;;;10.44;71.61
31092;BME280;67728;53.122;12.776;2023-03-23T01:39:35;99537.22;;;10.44;72.36
31092;BME280;67728;53.122;12.776;2023-03-23T01:41:07;99554.53;;;10.43;71.83
31092;BME280;67728;53.122;12.776;2023-03-23T01:42:39;99553.69;;;10.43;72.87
31092;BME280;67728;53.122;12.776;2023-03-23T01:46:15;99553.28;;;10.29;74.86
31092;BME280;67728;53.122;12.776;2023-03-23T01:47:48;99563.13;;;10.19;75.13
31092;BME280;67728;53.122;12.776;2023-03-23T01:49:24;99562.56;;;10.08;77.44
31092;BME280;67728;53.122;12.776;2023-03-23T01:51:02;99562.06;;;9.97;77.77
31092;BME280;67728;53.122;12.776;2023-03-23T01:52:33;99564.84;;;9.91;78.50
31092;BME280;67728;53.122;12.776;2023-03-23T01:54:07;99561.72;;;9.80;78.96
31092;BME280;67728;53.122;12.776;2023-03-23T01:55:43;99569.69;;;9.74;80.20
31092;BME280;67728;53.122;12.776;2023-03-23T01:57:15;99568.19;;;9.67;80.53
31092;BME280;67728;53.122;12.776;2023-03-23T01:58:48;99565.75;;;9.60;80.91
31092;BME280;67728;53.122;12.776;2023-03-23T02:00:20;99567.66;;;9.55;81.29
31092;BME280;67728;53.122;12.776;2023-03-23T02:01:52;99566.88;;;9.52;81.52
31092;BME280;67728;53.122;12.776;2023-03-23T02:03:25;99573.94;;;9.47;82.63
31092;BME280;67728;53.122;12.776;2023-03-23T02:04:59;99574.22;;;9.38;83.05
31092;BME280;67728;53.122;12.776;2023-03-23T02:06:34;99578.56;;;9.36;82.93
31092;BME280;67728;53.122;12.776;2023-03-23T02:08:07;99568.31;;;9.33;83.46
31092;BME280;67728;53.122;12.776;2023-03-23T02:09:39;99568.28;;;9.34;83.68
31092;BME280;67728;53.122;12.776;2023-03-23T02:11:14;99576.13;;;9.31;84.22
31092;BME280;67728;53.122;12.776;2023-03-23T02:12:46;99577.84;;;9.31;84.24
31092;BME280;67728;53.122;12.776;2023-03-23T02:14:17;99572.84;;;9.25;84.71
31092;BME280;67728;53.122;12.776;2023-03-23T02:16:00;99579.03;;;9.19;85.15
31092;BME280;67728;53.122;12.776;2023-03-23T02:17:38;99572.13;;;9.20;84.99
31092;BME280;67728;53.122;12.776;2023-03-23T02:19:38;99574.88;;;9.15;85.35
31092;BME280;67728;53.122;12.776;2023-03-23T02:21:38;99577.44;;;9.15;85.42
31092;BME280;67728;53.122;12.776;2023-03-23T02:23:39;99575.75;;;9.14;85.56
31092;BME280;67728;53.122;12.776;2023-03-23T02:25:33;99574.91;;;9.14;85.43
31092;BME280;67728;53.122;12.776;2023-03-23T02:27:14;99572.34;;;9.14;85.87
31092;BME280;67728;53.122;12.776;2023-03-23T02:29:01;99574.06;;;9.13;85.64
31092;BME280;67728;53.122;12.776;2023-03-23T02:30:51;99567.16;;;9.14;85.65
31092;BME280;67728;53.122;12.776;2023-03-23T02:32:55;99561.16;;;9.12;86.04
31092;BME280;67728;53.122;12.776;2023-03-23T02:34:35;99567.25;;;9.11;86.12
31092;BME280;67728;53.122;12.776;2023-03-23T02:36:18;99569.00;;;9.09;86.96
31092;BME280;67728;53.122;12.776;2023-03-23T02:37:54;99565.59;;;9.08;86.69
31092;BME280;67728;53.122;12.776;2023-03-23T02:39:30;99556.13;;;9.07;86.96
31092;BME280;67728;53.122;12.776;2023-03-23T02:41:04;99560.41;;;9.08;87.20
31092;BME280;67728;53.122;12.776;2023-03-23T02:42:38;99554.38;;;9.08;87.48
31092;BME280;67728;53.122;12.776;2023-03-23T02:44:12;99552.66;;;9.08;87.38
31092;BME280;67728;53.122;12.776;2023-03-23T02:45:45;99542.41;;;9.03;87.62
31092;BME280;67728;53.122;12.776;2023-03-23T02:47:20;99544.13;;;9.05;88.05
31092;BME280;67728;53.122;12.776;2023-03-23T02:48:54;99546.72;;;9.05;87.42
31092;BME280;67728;53.122;12.776;2023-03-23T02:50:29;99557.91;;;9.05;87.83
31092;BME280;67728;53.122;12.776;2023-03-23T02:52:07;99544.97;;;9.05;88.11
31092;BME280;67728;53.122;12.776;2023-03-23T02:53:43;99544.13;;;9.05;88.24
31092;BME280;67728;53.122;12.776;2023-03-23T02:55:18;99559.59;;;9.06;88.11
31092;BME280;67728;53.122;12.776;2023-03-23T02:56:51;99554.38;;;9.08;88.00
31092;BME280;67728;53.122;12.776;2023-03-23T02:58:24;99546.63;;;9.08;88.07
31092;BME280;67728;53.122;12.776;2023-03-23T02:59:56;99552.69;;;9.07;88.43
31092;BME280;67728;53.122;12.776;2023-03-23T03:01:51;99548.44;;;9.04;88.27
31092;BME280;67728;53.122;12.776;2023-03-23T03:03:27;99551.00;;;9.06;88.29
31092;BME280;67728;53.122;12.776;2023-03-23T03:05:05;99546.72;;;9.05;88.31
31092;BME280;67728;53.122;12.776;2023-03-23T03:06:52;99550.19;;;9.03;88.43
31092;BME280;67728;53.122;12.776;2023-03-23T03:08:30;99557.94;;;9.03;88.44
31092;BME280;67728;53.122;12.776;2023-03-23T03:10:09;99559.72;;;9.01;88.82
31092;BME280;67728;53.122;12.776;2023-03-23T03:11:46;99549.44;;;9.00;89.11
31092;BME280;67728;53.122;12.776;2023-03-23T03:13:25;99558.94;;;8.99;88.92
31092;BME280;67728;53.122;12.776;2023-03-23T03:15:07;99557.28;;;8.97;89.45
31092;BME280;67728;53.122;12.776;2023-03-23T03:16:43;99559.03;;;8.95;89.26
31092;BME280;67728;53.122;12.776;2023-03-23T03:18:18;99548.69;;;8.95;89.55
31092;BME280;67728;53.122;12.776;2023-03-23T03:19:55;99554.72;;;8.95;89.66
31092;BME280;67728;53.122;12.776;2023-03-23T03:21:30;99550.53;;;8.91;89.33
31092;BME280;67728;53.122;12.776;2023-03-23T03:23:06;99546.22;;;8.92;89.71
31092;BME280;67728;53.122;12.776;2023-03-23T03:24:41;99532.34;;;8.94;89.85
31092;BME280;67728;53.122;12.776;2023-03-23T03:26:14;99541.78;;;8.95;89.50
31092;BME280;67728;53.122;12.776;2023-03-23T03:27:48;99532.34;;;8.94;89.52
31092;BME280;67728;53.122;12.776;2023-03-23T03:29:26;99536.59;;;8.95;89.54
31092;BME280;67728;53.122;12.776;2023-03-23T03:31:02;99532.34;;;8.94;89.79
31092;BME280;67728;53.122;12.776;2023-03-23T03:32:38;99536.59;;;8.95;89.57
31092;BME280;67728;53.122;12.776;2023-03-23T03:34:11;99530.50;;;8.98;89.84
31092;BME280;67728;53.122;12.776;2023-03-23T03:35:48;99534.00;;;8.97;89.56
31092;BME280;67728;53.122;12.776;2023-03-23T03:37:20;99536.59;;;8.97;89.39
31092;BME280;67728;53.122;12.776;2023-03-23T03:38:53;99529.63;;;8.99;89.71
31092;BME280;67728;53.122;12.776;2023-03-23T03:40:27;99539.97;;;8.99;90.30
31092;BME280;67728;53.122;12.776;2023-03-23T03:41:59;99540.84;;;8.98;89.98
31092;BME280;67728;53.122;12.776;2023-03-23T03:43:30;99544.34;;;8.97;90.15
31092;BME280;67728;53.122;12.776;2023-03-23T03:45:01;99544.34;;;8.97;89.97
31092;BME280;67728;53.122;12.776;2023-03-23T03:46:33;99534.00;;;8.97;90.12
31092;BME280;67728;53.122;12.776;2023-03-23T03:48:05;99527.06;;;8.97;89.99
31092;BME280;67728;53.122;12.776;2023-03-23T03:49:36;99521.06;;;8.97;89.85
31092;BME280;67728;53.122;12.776;2023-03-23T03:51:07;99527.06;;;8.97;90.62
31092;BME280;67728;53.122;12.776;2023-03-23T03:52:40;99523.66;;;8.97;90.21
31092;BME280;67728;53.122;12.776;2023-03-23T03:54:13;99528.81;;;8.97;90.56
31092;BME280;67728;53.122;12.776;2023-03-23T03:55:45;99533.09;;;8.98;90.49
31092;BME280;67728;53.122;12.776;2023-03-23T03:57:19;99528.81;;;8.97;90.30
31092;BME280;67728;53.122;12.776;2023-03-23T03:58:50;99521.88;;;8.97;90.66
31092;BME280;67728;53.122;12.776;2023-03-23T04:00:22;99528.84;;;8.95;90.46
31092;BME280;67728;53.122;12.776;2023-03-23T04:01:54;99533.16;;;8.96;90.56
31092;BME280;67728;53.122;12.776;2023-03-23T04:03:26;99540.06;;;8.96;90.64
31092;BME280;67728;53.122;12.776;2023-03-23T04:04:58;99540.06;;;8.96;90.63
31092;BME280;67728;53.122;12.776;2023-03-23T04:06:34;99543.56;;;8.93;90.42
31092;BME280;67728;53.122;12.776;2023-03-23T04:08:08;99543.50;;;8.95;90.93
31092;BME280;67728;53.122;12.776;2023-03-23T04:09:42;99541.84;;;8.94;90.50
31092;BME280;67728;53.122;12.776;2023-03-23T04:11:16;99531.53;;;8.92;90.81
31092;BME280;67728;53.122;12.776;2023-03-23T04:12:48;99539.28;;;8.92;90.56
31092;BME280;67728;53.122;12.776;2023-03-23T04:14:19;99541.84;;;8.94;90.62
31092;BME280;67728;53.122;12.776;2023-03-23T04:15:50;99539.34;;;8.89;90.80
31092;BME280;67728;53.122;12.776;2023-03-23T04:17:21;99537.59;;;8.91;91.01
31092;BME280;67728;53.122;12.776;2023-03-23T04:18:56;99524.69;;;8.90;90.52
31092;BME280;67728;53.122;12.776;2023-03-23T04:20:27;99518.66;;;8.89;91.21
31092;BME280;67728;53.122;12.776;2023-03-23T04:21:59;99519.53;;;8.90;90.68
31092;BME280;67728;53.122;12.776;2023-03-23T04:23:31;99517.00;;;8.88;90.85
31092;BME280;67728;53.122;12.776;2023-03-23T04:25:06;99530.81;;;8.87;90.72
31092;BME280;67728;53.122;12.776;2023-03-23T04:26:37;99529.94;;;8.87;90.54
31092;BME280;67728;53.122;12.776;2023-03-23T04:28:10;99521.38;;;8.86;90.58
31092;BME280;67728;53.122;12.776;2023-03-23T04:29:41;99526.56;;;8.85;90.47
31092;BME280;67728;53.122;12.776;2023-03-23T04:31:19;99520.50;;;8.86;90.98
31092;BME280;67728;53.122;12.776;2023-03-23T04:32:55;99504.16;;;8.85;90.94
31092;BME280;67728;53.122;12.776;2023-03-23T04:34:26;99500.72;;;8.85;90.66
31092;BME280;67728;53.122;12.776;2023-03-23T04:36:00;99507.59;;;8.86;91.16
31092;BME280;67728;53.122;12.776;2023-03-23T04:37:32;99502.41;;;8.86;90.93
31092;BME280;67728;53.122;12.776;2023-03-23T04:39:04;99502.41;;;8.86;90.26
31092;BME280;67728;53.122;12.776;2023-03-23T04:40:42;99504.09;;;8.87;90.83
31092;BME280;67728;53.122;12.776;2023-03-23T04:42:14;99508.44;;;8.86;90.77
31092;BME280;67728;53.122;12.776;2023-03-23T04:43:46;99497.19;;;8.87;90.80
31092;BME280;67728;53.122;12.776;2023-03-23T04:45:22;99499.75;;;8.89;90.64
31092;BME280;67728;53.122;12.776;2023-03-23T04:46:54;99496.34;;;8.87;90.98
31092;BME280;67728;53.122;12.776;2023-03-23T04:48:25;99499.75;;;8.89;91.02
31092;BME280;67728;53.122;12.776;2023-03-23T04:49:57;99496.34;;;8.87;90.79
31092;BME280;67728;53.122;12.776;2023-03-23T04:51:28;99504.00;;;8.90;91.18
31092;BME280;67728;53.122;12.776;2023-03-23T04:53:03;99505.75;;;8.89;90.69
31092;BME280;67728;53.122;12.776;2023-03-23T04:54:35;99498.84;;;8.90;91.12
31092;BME280;67728;53.122;12.776;2023-03-23T04:56:07;99498.81;;;8.91;91.25
31092;BME280;67728;53.122;12.776;2023-03-23T04:57:39;99488.47;;;8.91;91.09
31092;BME280;67728;53.122;12.776;2023-03-23T04:59:10;99497.91;;;8.92;91.00
31092;BME280;67728;53.122;12.776;2023-03-23T05:00:43;99498.81;;;8.91;90.97
31092;BME280;67728;53.122;12.776;2023-03-23T05:02:19;99499.59;;;8.93;90.86
31092;BME280;67728;53.122;12.776;2023-03-23T05:03:51;99486.75;;;8.90;91.13
31092;BME280;67728;53.122;12.776;2023-03-23T05:05:22;99494.53;;;8.90;90.76
31092;BME280;67728;53.122;12.776;2023-03-23T05:06:54;99491.91;;;8.92;91.23
31092;BME280;67728;53.122;12.776;2023-03-23T05:08:26;99490.97;;;8.94;90.86
31092;BME280;67728;53.122;12.776;2023-03-23T05:09:58;99492.66;;;8.95;90.59
31092;BME280;67728;53.122;12.776;2023-03-23T05:11:31;99502.13;;;8.95;91.09
31092;BME280;67728;53.122;12.776;2023-03-23T05:13:03;99502.19;;;8.93;90.69
31092;BME280;67728;53.122;12.776;2023-03-23T05:14:34;99498.72;;;8.94;90.75
31092;BME280;67728;53.122;12.776;2023-03-23T05:16:06;99505.56;;;8.95;90.77
31092;BME280;67728;53.122;12.776;2023-03-23T05:17:38;99503.84;;;8.96;90.86
31092;BME280;67728;53.122;12.776;2023-03-23T05:19:10;99498.72;;;8.94;91.23
31092;BME280;67728;53.122;12.776;2023-03-23T05:20:42;99500.47;;;8.94;90.74
31092;BME280;67728;53.122;12.776;2023-03-23T05:22:16;99496.97;;;8.95;91.04
31092;BME280;67728;53.122;12.776;2023-03-23T05:23:50;99496.16;;;8.94;90.55
31092;BME280;67728;53.122;12.776;2023-03-23T05:25:24;99497.03;;;8.93;91.15
31092;BME280;67728;53.122;12.776;2023-03-23T05:26:58;99497.91;;;8.92;90.84
31092;BME280;67728;53.122;12.776;2023-03-23T05:28:28;99502.25;;;8.92;90.82
31092;BME280;67728;53.122;12.776;2023-03-23T05:30:00;99502.28;;;8.90;91.05
31092;BME280;67728;53.122;12.776;2023-03-23T05:31:31;99495.31;;;8.92;90.78
31092;BME280;67728;53.122;12.776;2023-03-23T05:33:04;99495.38;;;8.91;91.14
31092;BME280;67728;53.122;12.776;2023-03-23T05:34:35;99492.72;;;8.92;90.56
31092;BME280;67728;53.122;12.776;2023-03-23T05:36:07;99497.91;;;8.92;90.48
31092;BME280;67728;53.122;12.776;2023-03-23T05:37:40;99501.31;;;8.94;90.38
31092;BME280;67728;53.122;12.776;2023-03-23T05:39:12;99490.97;;;8.94;90.34
31092;BME280;67728;53.122;12.776;2023-03-23T05:40:44;99496.88;;;8.98;90.20
31092;BME280;67728;53.122;12.776;2023-03-23T05:42:17;99499.53;;;8.96;90.48
31092;BME280;67728;53.122;12.776;2023-03-23T05:43:49;99494.34;;;8.96;90.15
31092;BME280;67728;53.122;12.776;2023-03-23T05:45:21;99494.34;;;8.96;90.60
31092;BME280;67728;53.122;12.776;2023-03-23T05:46:53;99488.31;;;8.96;90.61
31092;BME280;67728;53.122;12.776;2023-03-23T05:48:24;99501.19;;;8.97;90.43
31092;BME280;67728;53.122;12.776;2023-03-23T05:49:56;99493.44;;;8.97;90.49
31092;BME280;67728;53.122;12.776;2023-03-23T05:51:28;99485.75;;;8.96;90.15
31092;BME280;67728;53.122;12.776;2023-03-23T05:53:00;99494.38;;;8.95;90.18
31092;BME280;67728;53.122;12.776;2023-03-23T05:54:33;99486.69;;;8.93;90.33
31092;BME280;67728;53.122;12.776;2023-03-23T05:56:06;99495.31;;;8.92;90.54
31092;BME280;67728;53.122;12.776;2023-03-23T05:57:39;99500.50;;;8.92;90.78
31092;BME280;67728;53.122;12.776;2023-03-23T05:59:11;99495.31;;;8.92;90.73
31092;BME280;67728;53.122;12.776;2023-03-23T06:00:43;99502.19;;;8.93;90.23
31092;BME280;67728;53.122;12.776;2023-03-23T06:02:15;99492.66;;;8.95;90.99
31092;BME280;67728;53.122;12.776;2023-03-23T06:03:47;99489.22;;;8.95;90.64
31092;BME280;67728;53.122;12.776;2023-03-23T06:05:21;99497.81;;;8.95;90.58
31092;BME280;67728;53.122;12.776;2023-03-23T06:06:54;99491.84;;;8.93;90.46
31092;BME280;67728;53.122;12.776;2023-03-23T06:08:26;99484.03;;;8.95;90.46
31092;BME280;67728;53.122;12.776;2023-03-23T06:09:57;99484.03;;;8.95;90.81
31092;BME280;67728;53.122;12.776;2023-03-23T06:11:29;99485.75;;;8.96;90.81
31092;BME280;67728;53.122;12.776;2023-03-23T06:13:02;99481.38;;;8.98;90.76
31092;BME280;67728;53.122;12.776;2023-03-23T06:14:34;99478.84;;;8.96;90.80
31092;BME280;67728;53.122;12.776;2023-03-23T06:16:06;99473.59;;;8.98;90.65
31092;BME280;67728;53.122;12.776;2023-03-23T06:17:38;99475.22;;;9.02;90.93
31092;BME280;67728;53.122;12.776;2023-03-23T06:19:10;99493.34;;;9.02;90.35
31092;BME280;67728;53.122;12.776;2023-03-23T06:20:42;99485.50;;;9.03;91.16
31092;BME280;67728;53.122;12.776;2023-03-23T06:22:15;99484.66;;;9.03;90.83
31092;BME280;67728;53.122;12.776;2023-03-23T06:23:47;99489.00;;;9.02;90.46
31092;BME280;67728;53.122;12.776;2023-03-23T06:25:19;99489.81;;;9.05;90.69
31092;BME280;67728;53.122;12.776;2023-03-23T06:26:50;99482.00;;;9.06;90.89
31092;BME280;67728;53.122;12.776;2023-03-23T06:28:23;99488.03;;;9.07;91.02
31092;BME280;67728;53.122;12.776;2023-03-23T06:29:55;99487.06;;;9.09;90.44
31092;BME280;67728;53.122;12.776;2023-03-23T06:31:27;99485.25;;;9.13;90.49
31092;BME280;67728;53.122;12.776;2023-03-23T06:32:59;99479.22;;;9.12;90.58
31092;BME280;67728;53.122;12.776;2023-03-23T06:34:32;99480.09;;;9.13;90.99
31092;BME280;67728;53.122;12.776;2023-03-23T06:36:04;99480.09;;;9.13;90.75
31092;BME280;67728;53.122;12.776;2023-03-23T06:37:36;99476.63;;;9.14;90.40
31092;BME280;67728;53.122;12.776;2023-03-23T06:39:08;99469.59;;;9.17;90.55
31092;BME280;67728;53.122;12.776;2023-03-23T06:40:40;99469.56;;;9.19;90.55
31092;BME280;67728;53.122;12.776;2023-03-23T06:42:12;99472.06;;;9.22;89.89
31092;BME280;67728;53.122;12.776;2023-03-23T06:43:45;99467.69;;;9.24;90.44
31092;BME280;67728;53.122;12.776;2023-03-23T06:45:16;99465.09;;;9.24;90.42
31092;BME280;67728;53.122;12.776;2023-03-23T06:46:50;99460.72;;;9.26;90.05
31092;BME280;67728;53.122;12.776;2023-03-23T06:48:21;99454.66;;;9.27;90.24
31092;BME280;67728;53.122;12.776;2023-03-23T06:49:53;99458.91;;;9.28;90.05
31092;BME280;67728;53.122;12.776;2023-03-23T06:51:25;99466.56;;;9.32;90.37
31092;BME280;67728;53.122;12.776;2023-03-23T06:52:57;99476.06;;;9.32;90.13
31092;BME280;67728;53.122;12.776;2023-03-23T06:54:28;99469.09;;;9.34;90.13
31092;BME280;67728;53.122;12.776;2023-03-23T06:56:00;99480.31;;;9.34;90.32
31092;BME280;67728;53.122;12.776;2023-03-23T06:57:32;99476.78;;;9.35;90.47
31092;BME280;67728;53.122;12.776;2023-03-23T06:59:05;99469.00;;;9.37;90.08
31092;BME280;67728;53.122;12.776;2023-03-23T07:00:37;99473.25;;;9.39;90.35
31092;BME280;67728;53.122;12.776;2023-03-23T07:02:10;99466.25;;;9.41;90.21
31092;BME280;67728;53.122;12.776;2023-03-23T07:03:42;99470.50;;;9.44;89.73
31092;BME280;67728;53.122;12.776;2023-03-23T07:05:14;99472.16;;;9.46;90.05
31092;BME280;67728;53.122;12.776;2023-03-23T07:06:46;99474.63;;;9.49;90.14
31092;BME280;67728;53.122;12.776;2023-03-23T07:08:18;99482.38;;;9.51;90.25
31092;BME280;67728;53.122;12.776;2023-03-23T07:09:50;99486.59;;;9.53;90.06
31092;BME280;67728;53.122;12.776;2023-03-23T07:11:21;99483.06;;;9.56;90.25
31092;BME280;67728;53.122;12.776;2023-03-23T07:12:53;99473.50;;;9.58;90.18
31092;BME280;67728;53.122;12.776;2023-03-23T07:14:26;99484.66;;;9.60;89.85
31092;BME280;67728;53.122;12.776;2023-03-23T07:15:57;99485.41;;;9.63;90.05
31092;BME280;67728;53.122;12.776;2023-03-23T07:17:29;99484.44;;;9.68;90.07
31092;BME280;67728;53.122;12.776;2023-03-23T07:19:02;99480.09;;;9.68;89.88
31092;BME280;67728;53.122;12.776;2023-03-23T07:20:33;99480.94;;;9.69;90.02
31092;BME280;67728;53.122;12.776;2023-03-23T07:22:07;99479.13;;;9.71;89.75
31092;BME280;67728;53.122;12.776;2023-03-23T07:23:39;99480.91;;;9.70;89.87
31092;BME280;67728;53.122;12.776;2023-03-23T07:25:10;99478.09;;;9.76;90.12
31092;BME280;67728;53.122;12.776;2023-03-23T07:26:42;99478.09;;;9.76;89.47
31092;BME280;67728;53.122;12.776;2023-03-23T07:28:14;99483.28;;;9.76;89.38
31092;BME280;67728;53.122;12.776;2023-03-23T07:29:47;99483.19;;;9.79;89.51
31092;BME280;67728;53.122;12.776;2023-03-23T07:31:19;99472.81;;;9.79;89.32
31092;BME280;67728;53.122;12.776;2023-03-23T07:32:50;99473.66;;;9.81;89.36
31092;BME280;67728;53.122;12.776;2023-03-23T07:34:22;99467.53;;;9.84;88.96
31092;BME280;67728;53.122;12.776;2023-03-23T07:35:54;99476.97;;;9.85;89.18
31092;BME280;67728;53.122;12.776;2023-03-23T07:37:26;99476.97;;;9.85;89.13
31092;BME280;67728;53.122;12.776;2023-03-23T07:38:58;99466.59;;;9.85;88.55
31092;BME280;67728;53.122;12.776;2023-03-23T07:40:30;99467.47;;;9.85;88.97
31092;BME280;67728;53.122;12.776;2023-03-23T07:42:03;99475.13;;;9.88;88.88
31092;BME280;67728;53.122;12.776;2023-03-23T07:43:37;99477.72;;;9.88;88.87
31092;BME280;67728;53.122;12.776;2023-03-23T07:45:11;99477.72;;;9.88;89.38
31092;BME280;67728;53.122;12.776;2023-03-23T07:46:43;99482.84;;;9.90;88.47
31092;BME280;67728;53.122;12.776;2023-03-23T07:48:14;99476.72;;;9.92;88.47
31092;BME280;67728;53.122;12.776;2023-03-23T07:49:46;99479.31;;;9.92;89.08
31092;BME280;67728;53.122;12.776;2023-03-23T07:51:17;99475.81;;;9.93;88.91
31092;BME280;67728;53.122;12.776;2023-03-23T07:52:49;99486.19;;;9.93;89.08
31092;BME280;67728;53.122;12.776;2023-03-23T07:54:21;99480.91;;;9.96;88.71
31092;BME280;67728;53.122;12.776;2023-03-23T07:55:53;99484.28;;;9.98;88.69
31092;BME280;67728;53.122;12.776;2023-03-23T07:57:24;99485.94;;;10.01;88.53
31092;BME280;67728;53.122;12.776;2023-03-23T07:58:56;99488.44;;;10.04;88.58
31092;BME280;67728;53.122;12.776;2023-03-23T08:00:29;99483.16;;;10.07;88.11
31092;BME280;67728;53.122;12.776;2023-03-23T08:02:03;99493.34;;;10.11;87.97
31092;BME280;67728;53.122;12.776;2023-03-23T08:03:35;99489.84;;;10.14;87.92
31092;BME280;67728;53.122;12.776;2023-03-23T08:05:08;99488.16;;;10.13;87.86
31092;BME280;67728;53.122;12.776;2023-03-23T08:06:40;99490.59;;;10.17;87.73
31092;BME280;67728;53.122;12.776;2023-03-23T08:08:12;99493.09;;;10.20;87.63
31092;BME280;67728;53.122;12.776;2023-03-23T08:09:45;99490.59;;;10.17;87.75
31092;BME280;67728;53.122;12.776;2023-03-23T08:11:17;99491.25;;;10.24;87.97
31092;BME280;67728;53.122;12.776;2023-03-23T08:12:51;99495.47;;;10.27;87.28
31092;BME280;67728;53.122;12.776;2023-03-23T08:14:24;99497.97;;;10.30;87.75
31092;BME280;67728;53.122;12.776;2023-03-23T08:15:59;99494.44;;;10.32;87.14